< < Back
Terminal Aerodrome Forecast


Current Version              Previous Versions:   1  2  3  4  5  6  7  8  9  

Terminal Aerodrome Forecast

632
FTUS44 KOHX 221700
TAFBNA
TAF
KBNA 221727Z 2218/2318 03009G14KT P6SM SKC
     FM230000 04006KT P6SM SKC=



Latest METAR

580
SAUS70 KWBC 230000 RRC
MTRBNA
METAR KBNA 222353Z 02007KT 10SM CLR 12/06 A3020 RMK AO2 SLP228 T01220056
10178 20122 53002


USA.gov is the U.S. government's official web portal to all federal, state and local government web resources and services.